createdAt,value
2023-07-03T00:00:05.568Z,0
2023-07-03T00:00:35.578Z,0
2023-07-03T00:01:05.578Z,0
2023-07-03T00:01:35.593Z,0
2023-07-03T00:02:05.642Z,0
2023-07-03T00:02:35.602Z,0
2023-07-03T00:03:05.661Z,0
2023-07-03T00:03:35.612Z,0
2023-07-03T00:04:05.678Z,0
2023-07-03T00:04:35.680Z,0
2023-07-03T00:05:05.717Z,0
2023-07-03T00:05:35.646Z,0
2023-07-03T00:06:05.636Z,0
2023-07-03T00:06:35.640Z,0
2023-07-03T00:07:05.661Z,0
2023-07-03T00:07:35.666Z,0
2023-07-03T00:08:05.669Z,0
2023-07-03T00:08:35.668Z,0
2023-07-03T00:09:05.684Z,0
2023-07-03T00:09:35.688Z,0
2023-07-03T00:10:05.847Z,0
2023-07-03T00:10:35.699Z,0
2023-07-03T00:11:05.705Z,0
2023-07-03T00:11:35.705Z,0
2023-07-03T00:12:05.722Z,0
2023-07-03T00:12:35.728Z,0
2023-07-03T00:13:05.731Z,0
2023-07-03T00:13:35.735Z,0
2023-07-03T00:14:05.749Z,0
2023-07-03T00:14:35.753Z,0
2023-07-03T00:15:05.762Z,0
2023-07-03T00:15:35.765Z,0
2023-07-03T00:16:05.839Z,0
2023-07-03T00:16:35.808Z,0
2023-07-03T00:17:35.817Z,0
2023-07-03T00:18:05.819Z,0
2023-07-03T00:18:35.799Z,0
2023-07-03T00:19:05.805Z,0
2023-07-03T00:19:35.859Z,0
2023-07-03T00:20:05.836Z,0
2023-07-03T00:20:35.845Z,0
2023-07-03T00:21:05.846Z,0
2023-07-03T00:21:35.837Z,0
2023-07-03T00:22:35.852Z,0
2023-07-03T00:23:05.859Z,0
2023-07-03T00:23:35.869Z,0
2023-07-03T00:24:05.870Z,0
2023-07-03T00:24:35.885Z,0
2023-07-03T00:25:05.887Z,0
2023-07-03T00:25:35.903Z,0
2023-07-03T00:26:05.895Z,0
2023-07-03T00:26:35.903Z,0
2023-07-03T00:27:05.915Z,0
2023-07-03T00:27:35.926Z,0
2023-07-03T00:28:05.920Z,0
2023-07-03T00:28:35.931Z,0
2023-07-03T00:29:05.937Z,0
2023-07-03T00:29:35.949Z,0
2023-07-03T00:30:05.954Z,0
2023-07-03T00:30:35.963Z,0
2023-07-03T00:31:05.962Z,0
2023-07-03T00:31:36.016Z,0
2023-07-03T00:32:05.996Z,0
2023-07-03T00:32:36.010Z,0
2023-07-03T00:33:06.015Z,0
2023-07-03T00:33:36.004Z,0
2023-07-03T00:34:06.006Z,0
2023-07-03T00:34:36.019Z,0
2023-07-03T00:35:06.017Z,0
2023-07-03T00:35:36.037Z,0
2023-07-03T00:36:06.039Z,0
2023-07-03T00:36:36.038Z,0
2023-07-03T00:37:06.049Z,0
2023-07-03T00:37:36.063Z,0
2023-07-03T00:38:06.061Z,0
2023-07-03T00:38:36.063Z,0
2023-07-03T00:39:06.076Z,0
2023-07-03T00:39:36.086Z,0
2023-07-03T00:40:06.083Z,0
2023-07-03T00:40:36.096Z,0
2023-07-03T00:41:06.088Z,0
2023-07-03T00:41:36.131Z,0
2023-07-03T00:42:06.116Z,0
2023-07-03T00:42:36.132Z,0
2023-07-03T00:43:06.120Z,0
2023-07-03T00:43:36.123Z,0
2023-07-03T00:44:06.153Z,0
2023-07-03T00:44:36.141Z,0
2023-07-03T00:45:06.154Z,0
2023-07-03T00:45:36.170Z,0
2023-07-03T00:46:06.224Z,0
2023-07-03T00:46:36.182Z,0
2023-07-03T00:47:06.181Z,0
2023-07-03T00:47:36.227Z,0
2023-07-03T00:48:06.182Z,0
2023-07-03T00:48:36.200Z,0
2023-07-03T00:49:06.211Z,0
2023-07-03T00:49:36.219Z,0
2023-07-03T00:50:06.221Z,0
2023-07-03T00:50:36.221Z,0
2023-07-03T00:51:06.270Z,0
2023-07-03T00:51:36.247Z,0
2023-07-03T00:52:36.277Z,0
2023-07-03T00:53:06.258Z,0
2023-07-03T00:53:36.261Z,0
2023-07-03T00:54:36.293Z,0
2023-07-03T00:55:06.276Z,0
2023-07-03T00:55:36.281Z,0
2023-07-03T00:56:06.297Z,0
2023-07-03T00:56:36.313Z,0
2023-07-03T00:57:06.319Z,0
2023-07-03T00:57:36.310Z,0
2023-07-03T00:58:36.340Z,0
2023-07-03T00:59:06.337Z,0
2023-07-03T00:59:36.339Z,0
2023-07-03T01:00:06.340Z,0
2023-07-03T01:00:36.346Z,0
2023-07-03T01:01:06.372Z,0
2023-07-03T01:02:14.237Z,0
2023-07-03T01:02:44.254Z,0
2023-07-03T01:03:44.207Z,0
2023-07-03T01:04:14.248Z,0
2023-07-03T01:04:44.272Z,0
2023-07-03T01:05:14.325Z,0
2023-07-03T01:05:44.291Z,0
2023-07-03T01:06:14.235Z,0
2023-07-03T01:06:44.251Z,0
2023-07-03T01:07:14.289Z,0
2023-07-03T01:07:44.256Z,0
2023-07-03T01:08:14.259Z,0
2023-07-03T01:08:44.266Z,0
2023-07-03T01:09:14.298Z,0
2023-07-03T01:09:44.278Z,0
2023-07-03T01:10:14.286Z,0
2023-07-03T01:10:44.296Z,0
2023-07-03T01:11:14.296Z,0
2023-07-03T01:11:44.313Z,0
2023-07-03T01:12:14.318Z,0
2023-07-03T01:12:44.321Z,0
2023-07-03T01:13:14.338Z,0
2023-07-03T01:13:44.333Z,0
2023-07-03T01:14:14.334Z,0
2023-07-03T01:14:44.359Z,0
2023-07-03T01:15:14.352Z,0
2023-07-03T01:15:44.379Z,0
2023-07-03T01:16:14.397Z,0
2023-07-03T01:16:44.413Z,0
2023-07-03T01:17:14.370Z,0
2023-07-03T01:17:44.483Z,0
2023-07-03T01:18:14.410Z,0
2023-07-03T01:18:44.409Z,0
2023-07-03T01:19:14.399Z,0
2023-07-03T01:19:44.423Z,0
2023-07-03T01:20:14.514Z,0
2023-07-03T01:20:44.440Z,0
2023-07-03T01:21:14.419Z,0
2023-07-03T01:21:44.437Z,0
2023-07-03T01:22:14.441Z,0
2023-07-03T01:22:44.464Z,0
2023-07-03T01:23:14.455Z,0
2023-07-03T01:23:44.457Z,0
2023-07-03T01:24:14.462Z,0
2023-07-03T01:24:44.468Z,0
2023-07-03T01:25:14.491Z,0
2023-07-03T01:25:44.507Z,0
2023-07-03T01:26:14.515Z,0
2023-07-03T01:26:44.502Z,0
2023-07-03T01:27:14.587Z,0
2023-07-03T01:27:44.512Z,0
2023-07-03T01:28:44.538Z,0
2023-07-03T01:29:14.527Z,0
2023-07-03T01:29:44.545Z,0
2023-07-03T01:30:14.548Z,0
2023-07-03T01:30:44.549Z,0
2023-07-03T01:31:14.562Z,0
2023-07-03T01:31:44.620Z,0
2023-07-03T01:32:14.560Z,0
2023-07-03T01:32:44.607Z,0
2023-07-03T01:33:14.606Z,0
2023-07-03T01:33:44.599Z,0
2023-07-03T01:34:14.598Z,0
2023-07-03T01:34:44.607Z,0
2023-07-03T01:35:14.629Z,0
2023-07-03T01:35:44.612Z,0
2023-07-03T01:36:14.629Z,0
2023-07-03T01:36:44.625Z,0
2023-07-03T01:37:14.644Z,0
2023-07-03T01:37:44.667Z,0
2023-07-03T01:38:14.646Z,0
2023-07-03T01:38:44.658Z,0
2023-07-03T01:39:14.657Z,0
2023-07-03T01:39:44.694Z,0
2023-07-03T01:40:14.690Z,0
2023-07-03T01:40:44.679Z,0
2023-07-03T01:41:14.684Z,0
2023-07-03T01:41:44.691Z,0
2023-07-03T01:42:14.703Z,0
2023-07-03T01:42:44.742Z,0
2023-07-03T01:43:14.719Z,0
2023-07-03T01:43:44.726Z,0
2023-07-03T01:44:14.729Z,0
2023-07-03T01:44:44.754Z,0
2023-07-03T01:45:14.746Z,0
2023-07-03T01:45:44.782Z,0
2023-07-03T01:46:14.852Z,0
2023-07-03T01:46:44.763Z,0
2023-07-03T01:47:14.760Z,0
2023-07-03T01:47:44.811Z,0
2023-07-03T01:48:14.787Z,0
2023-07-03T01:48:44.798Z,0
2023-07-03T01:49:14.796Z,0
2023-07-03T01:49:44.802Z,0
2023-07-03T01:50:14.814Z,0
2023-07-03T01:50:44.819Z,0
2023-07-03T01:51:14.825Z,0
2023-07-03T01:51:44.828Z,0
2023-07-03T01:52:14.847Z,0
2023-07-03T01:52:44.842Z,0
2023-07-03T01:53:14.847Z,0
2023-07-03T01:53:44.884Z,0
2023-07-03T01:54:14.854Z,0
2023-07-03T01:54:44.882Z,0
2023-07-03T01:55:14.877Z,0
2023-07-03T01:55:44.878Z,0
2023-07-03T01:56:14.883Z,0
2023-07-03T01:56:44.892Z,0
2023-07-03T01:57:14.891Z,0
2023-07-03T01:57:44.935Z,0
2023-07-03T01:58:14.968Z,0
2023-07-03T01:58:44.930Z,0
2023-07-03T01:59:14.935Z,0
2023-07-03T01:59:44.951Z,0
2023-07-03T02:00:14.943Z,0
2023-07-03T02:00:44.956Z,0
2023-07-03T02:01:14.944Z,0
2023-07-03T02:01:45.039Z,0
2023-07-03T02:02:15.005Z,0
2023-07-03T02:02:45.050Z,0
2023-07-03T02:03:15.010Z,0
2023-07-03T02:03:45.000Z,0
2023-07-03T02:04:15.042Z,0
2023-07-03T02:04:45.038Z,0
2023-07-03T02:05:15.007Z,0
2023-07-03T02:05:45.030Z,0
2023-07-03T02:06:15.026Z,0
2023-07-03T02:06:45.025Z,0
2023-07-03T02:07:15.039Z,0
2023-07-03T02:07:45.041Z,0
2023-07-03T02:08:15.038Z,0
2023-07-03T02:08:45.056Z,0
2023-07-03T02:09:15.057Z,0
2023-07-03T02:09:45.064Z,0
2023-07-03T02:10:15.086Z,0
2023-07-03T02:10:45.118Z,0
2023-07-03T02:11:15.084Z,0
2023-07-03T02:11:45.105Z,0
2023-07-03T02:12:15.108Z,0
2023-07-03T02:12:45.111Z,0
2023-07-03T02:13:15.121Z,0
2023-07-03T02:13:45.115Z,0
2023-07-03T02:14:15.142Z,0
2023-07-03T02:14:45.141Z,0
2023-07-03T02:15:45.156Z,0
2023-07-03T02:16:15.177Z,0
2023-07-03T02:16:45.207Z,0
2023-07-03T02:17:15.158Z,0
2023-07-03T02:17:45.225Z,0
2023-07-03T02:18:15.176Z,0
2023-07-03T02:18:45.181Z,0
2023-07-03T02:19:15.200Z,0
2023-07-03T02:19:45.197Z,0
2023-07-03T02:20:15.196Z,0
2023-07-03T02:20:45.210Z,0
2023-07-03T02:21:15.219Z,0
2023-07-03T02:21:45.223Z,0
2023-07-03T02:22:15.227Z,0
2023-07-03T02:22:45.239Z,0
2023-07-03T02:23:15.242Z,0
2023-07-03T02:23:45.247Z,0
2023-07-03T02:24:15.253Z,0
2023-07-03T02:24:45.290Z,0
2023-07-03T02:25:15.266Z,0
2023-07-03T02:25:45.280Z,0
2023-07-03T02:26:15.460Z,0
2023-07-03T02:26:45.295Z,0
2023-07-03T02:27:15.289Z,0
2023-07-03T02:27:45.297Z,0
2023-07-03T02:28:15.303Z,0
2023-07-03T02:28:45.333Z,0
2023-07-03T02:29:15.323Z,0
2023-07-03T02:29:45.327Z,0
2023-07-03T02:30:15.336Z,0
2023-07-03T02:30:45.384Z,0
2023-07-03T02:31:15.358Z,0
2023-07-03T02:31:45.348Z,0
2023-07-03T02:32:15.353Z,0
2023-07-03T02:32:45.387Z,0
2023-07-03T02:33:15.371Z,0
2023-07-03T02:33:45.380Z,0
2023-07-03T02:34:15.380Z,0
2023-07-03T02:34:45.395Z,0
2023-07-03T02:35:15.393Z,0
2023-07-03T02:35:45.404Z,0
2023-07-03T02:36:15.423Z,0
2023-07-03T02:36:45.444Z,0
2023-07-03T02:37:15.420Z,0
2023-07-03T02:37:45.451Z,0
2023-07-03T02:38:15.437Z,0
2023-07-03T02:38:45.460Z,0
2023-07-03T02:39:15.449Z,0
2023-07-03T02:39:45.467Z,0
2023-07-03T02:40:15.494Z,0
2023-07-03T02:40:45.465Z,0
2023-07-03T02:41:15.478Z,0
2023-07-03T02:41:45.490Z,0
2023-07-03T02:42:15.498Z,0
2023-07-03T02:42:45.493Z,0
2023-07-03T02:43:15.499Z,0
2023-07-03T02:43:45.518Z,0
2023-07-03T02:44:15.540Z,0
2023-07-03T02:44:45.524Z,0
2023-07-03T02:45:45.540Z,0
2023-07-03T02:46:15.543Z,0
2023-07-03T02:46:45.612Z,0
2023-07-03T02:47:15.580Z,0
2023-07-03T02:47:45.584Z,0
2023-07-03T02:48:15.586Z,0
2023-07-03T02:48:45.653Z,0
2023-07-03T02:49:15.591Z,0
2023-07-03T02:49:45.670Z,0
2023-07-03T02:50:15.596Z,0
2023-07-03T02:50:45.610Z,0
2023-07-03T02:51:15.620Z,0
2023-07-03T02:51:45.626Z,0
2023-07-03T02:52:15.639Z,0
2023-07-03T02:52:45.636Z,0
2023-07-03T02:53:15.644Z,0
2023-07-03T02:53:45.648Z,0
2023-07-03T02:54:15.649Z,0
2023-07-03T02:54:45.669Z,0
2023-07-03T02:55:15.657Z,0
2023-07-03T02:55:45.673Z,0
2023-07-03T02:56:15.696Z,0
2023-07-03T02:56:45.703Z,0
2023-07-03T02:57:45.719Z,0
2023-07-03T02:58:15.704Z,0
2023-07-03T02:58:45.714Z,0
2023-07-03T02:59:15.807Z,0
2023-07-03T02:59:45.740Z,0
2023-07-03T03:00:15.731Z,0
2023-07-03T03:00:45.795Z,0
2023-07-03T03:01:15.873Z,0
2023-07-03T03:01:45.743Z,0
2023-07-03T03:02:15.809Z,0
2023-07-03T03:02:45.847Z,0
2023-07-03T03:03:15.854Z,0
2023-07-03T03:03:45.849Z,0
2023-07-03T03:04:15.795Z,0
2023-07-03T03:04:45.798Z,0
2023-07-03T03:05:15.809Z,0
2023-07-03T03:05:45.802Z,0
2023-07-03T03:06:15.815Z,0
2023-07-03T03:06:45.830Z,0
2023-07-03T03:07:15.821Z,0
2023-07-03T03:07:45.828Z,0
2023-07-03T03:08:15.834Z,0
2023-07-03T03:08:45.838Z,0
2023-07-03T03:09:15.851Z,0
2023-07-03T03:09:45.856Z,0
2023-07-03T03:10:15.866Z,0
2023-07-03T03:10:45.863Z,0
2023-07-03T03:11:45.886Z,0.58
2023-07-03T03:12:15.895Z,0.63
2023-07-03T03:12:45.900Z,0.75
2023-07-03T03:13:15.908Z,0.78
2023-07-03T03:13:45.916Z,0.75
2023-07-03T03:14:15.917Z,0.87
2023-07-03T03:14:26.709Z,2.83
2023-07-03T03:14:45.915Z,0.61
2023-07-03T03:14:49.751Z,1.95
2023-07-03T03:15:15.929Z,1.33
2023-07-03T03:15:20.721Z,1.11
2023-07-03T03:15:30.732Z,2.6
2023-07-03T03:15:45.926Z,1.2
2023-07-03T03:16:15.951Z,1.27
2023-07-03T03:16:39.741Z,2.29
2023-07-03T03:16:45.965Z,2.02
2023-07-03T03:16:50.764Z,1.25
2023-07-03T03:17:15.951Z,2.21
2023-07-03T03:17:20.726Z,1.12
2023-07-03T03:17:33.747Z,2.16
2023-07-03T03:17:45.979Z,1.54
2023-07-03T03:18:15.966Z,2.11
2023-07-03T03:18:38.735Z,3.84
2023-07-03T03:18:50.726Z,3.37
2023-07-03T03:19:15.720Z,2.22
2023-07-03T03:19:15.973Z,2.22
2023-07-03T03:19:42.740Z,2.17
2023-07-03T03:20:00.729Z,2.46
2023-07-03T03:20:15.993Z,3.74
2023-07-03T03:20:44.736Z,3.26
2023-07-03T03:21:01.765Z,3.07
2023-07-03T03:21:16.041Z,3.51
2023-07-03T03:21:46.023Z,2.59
2023-07-03T03:21:47.726Z,4.82
2023-07-03T03:22:04.739Z,4.24
2023-07-03T03:22:16.034Z,4.22
2023-07-03T03:22:21.733Z,2.63
2023-07-03T03:22:46.036Z,2.95
2023-07-03T03:23:05.734Z,2.59
2023-07-03T03:23:16.034Z,3.59
2023-07-03T03:23:23.753Z,4.1
2023-07-03T03:23:46.057Z,1.92
2023-07-03T03:24:05.747Z,2.28
2023-07-03T03:24:16.045Z,3.97
2023-07-03T03:24:23.746Z,4.16
2023-07-03T03:24:46.067Z,2.61
2023-07-03T03:24:54.739Z,3.09
2023-07-03T03:25:09.742Z,2.47
2023-07-03T03:25:16.070Z,3.74
2023-07-03T03:25:24.818Z,2.67
2023-07-03T03:25:51.868Z,2.48
2023-07-03T03:25:57.746Z,4.14
2023-07-03T03:26:16.099Z,2.92
2023-07-03T03:26:36.743Z,3.92
2023-07-03T03:26:52.743Z,4.84
2023-07-03T03:26:58.741Z,2.74
2023-07-03T03:27:17.349Z,4.11
2023-07-03T03:27:44.769Z,5.1
2023-07-03T03:27:56.756Z,4.76
2023-07-03T03:28:02.741Z,2.43
2023-07-03T03:28:16.096Z,3.08
2023-07-03T03:28:20.762Z,4.7
2023-07-03T03:28:46.103Z,3.44
2023-07-03T03:29:00.740Z,4.37
2023-07-03T03:29:06.745Z,2.29
2023-07-03T03:29:16.119Z,2.72
2023-07-03T03:29:24.760Z,4.46
2023-07-03T03:29:46.360Z,3.82
2023-07-03T03:30:00.800Z,3.23
2023-07-03T03:30:12.813Z,4.99
2023-07-03T03:30:33.867Z,4.8
2023-07-03T03:30:46.205Z,2.84
2023-07-03T03:30:50.842Z,5.38
2023-07-03T03:31:02.841Z,2.69
2023-07-03T03:31:14.887Z,2.48
2023-07-03T03:31:38.807Z,2.62
2023-07-03T03:31:46.200Z,3.86
2023-07-03T03:31:53.799Z,2.89
2023-07-03T03:32:05.789Z,4.1
2023-07-03T03:32:16.208Z,4.07
2023-07-03T03:32:18.941Z,2.82
2023-07-03T03:32:41.818Z,0
2023-07-03T03:32:46.234Z,0
2023-07-03T03:32:58.870Z,5.53
2023-07-03T03:33:16.170Z,4.16
2023-07-03T03:33:29.771Z,5.21
2023-07-03T03:33:46.180Z,5.5
2023-07-03T03:34:05.765Z,6.55
2023-07-03T03:34:16.183Z,6.49
2023-07-03T03:34:46.214Z,6.48
2023-07-03T03:35:16.197Z,7.27
2023-07-03T03:35:16.768Z,7.65
2023-07-03T03:36:16.218Z,7.18
2023-07-03T03:36:25.260Z,6.45
2023-07-03T03:37:16.230Z,7.04
2023-07-03T03:37:43.760Z,7.42
2023-07-03T03:38:16.256Z,6.67
2023-07-03T03:38:46.251Z,5.5
2023-07-03T03:39:16.264Z,5.76
2023-07-03T03:39:46.268Z,6.26
2023-07-03T03:40:13.775Z,4.76
2023-07-03T03:40:16.274Z,5.81
2023-07-03T03:40:19.776Z,6.29
2023-07-03T03:40:46.277Z,6.56
2023-07-03T03:41:16.289Z,6.05
2023-07-03T03:41:22.762Z,4.97
2023-07-03T03:41:46.283Z,6.59
2023-07-03T03:42:16.289Z,6.54
2023-07-03T03:42:46.307Z,6.55
2023-07-03T03:42:48.770Z,4.64
2023-07-03T03:42:53.768Z,6.36
2023-07-03T03:43:16.317Z,6.5
2023-07-03T03:43:46.326Z,6.29
2023-07-03T03:43:49.788Z,5.6
2023-07-03T03:44:00.781Z,6.91
2023-07-03T03:44:16.335Z,6.46
2023-07-03T03:44:54.803Z,5.34
2023-07-03T03:45:00.779Z,3.68
2023-07-03T03:45:16.338Z,6.44
2023-07-03T03:46:09.782Z,8.46
2023-07-03T03:46:16.350Z,8.77
2023-07-03T03:47:15.783Z,9.59
2023-07-03T03:47:16.358Z,9.59
2023-07-03T03:48:16.395Z,9.78
2023-07-03T03:48:31.977Z,10.78
2023-07-03T03:49:16.398Z,10.9
2023-07-03T03:49:27.803Z,9.86
2023-07-03T03:49:37.808Z,11.32
2023-07-03T03:50:16.410Z,10.29
2023-07-03T03:50:34.793Z,9.01
2023-07-03T03:50:39.778Z,6.81
2023-07-03T03:50:51.788Z,9.07
2023-07-03T03:51:16.413Z,10.86
2023-07-03T03:51:39.804Z,9.96
2023-07-03T03:51:45.822Z,11.2
2023-07-03T03:52:16.445Z,11.56
2023-07-03T03:52:43.797Z,10.31
2023-07-03T03:52:46.445Z,10.71
2023-07-03T03:53:12.795Z,7.64
2023-07-03T03:53:18.826Z,11.09
2023-07-03T03:53:46.453Z,11.07
2023-07-03T03:53:46.790Z,15.32
2023-07-03T03:54:13.792Z,14.57
2023-07-03T03:54:19.788Z,15.8
2023-07-03T03:54:46.462Z,16.04
2023-07-03T03:55:07.798Z,11.61
2023-07-03T03:55:13.791Z,16.66
2023-07-03T03:55:42.805Z,15.51
2023-07-03T03:55:46.477Z,15.86
2023-07-03T03:56:10.805Z,16.37
2023-07-03T03:56:16.493Z,16.41
2023-07-03T03:56:46.522Z,16.64
2023-07-03T03:57:16.503Z,16.55
2023-07-03T03:57:46.531Z,16.74
2023-07-03T03:58:01.802Z,17.52
2023-07-03T03:58:16.522Z,17.36
2023-07-03T03:58:46.527Z,17.81
2023-07-03T03:59:16.521Z,18.84
2023-07-03T03:59:46.546Z,19.5
2023-07-03T03:59:52.795Z,19.62
2023-07-03T04:00:16.575Z,19.7
2023-07-03T04:00:46.556Z,19.93
2023-07-03T04:01:16.584Z,20.3
2023-07-03T04:01:36.879Z,20.7
2023-07-03T04:01:46.566Z,20.87
2023-07-03T04:02:16.570Z,21.54
2023-07-03T04:02:21.865Z,21.8
2023-07-03T04:02:46.580Z,22.29
2023-07-03T04:03:16.582Z,22.94
2023-07-03T04:03:18.811Z,22.95
2023-07-03T04:03:46.897Z,23.1
2023-07-03T04:04:16.611Z,23.45
2023-07-03T04:04:46.643Z,23.55
2023-07-03T04:05:16.624Z,23.74
2023-07-03T04:05:21.901Z,15.28
2023-07-03T04:05:46.630Z,24.79
2023-07-03T04:06:16.626Z,24.06
2023-07-03T04:06:46.636Z,24.4
2023-07-03T04:07:16.636Z,25.11
2023-07-03T04:07:27.811Z,25.34
2023-07-03T04:07:46.656Z,25.3
2023-07-03T04:08:16.643Z,25.86
2023-07-03T04:08:46.659Z,26.38
2023-07-03T04:09:00.837Z,26.81
2023-07-03T04:09:16.658Z,26.93
2023-07-03T04:09:46.675Z,27.13
2023-07-03T04:10:16.680Z,27.3
2023-07-03T04:10:46.683Z,27.25
2023-07-03T04:11:16.707Z,27.17
2023-07-03T04:11:46.694Z,26.92
2023-07-03T04:11:46.916Z,16.34
2023-07-03T04:12:16.772Z,26.63
2023-07-03T04:12:46.714Z,26.46
2023-07-03T04:13:09.834Z,26.16
2023-07-03T04:13:46.741Z,26.11
2023-07-03T04:14:16.735Z,25.86
2023-07-03T04:14:46.753Z,25.74
2023-07-03T04:15:16.745Z,25.5
2023-07-03T04:15:30.845Z,24.88
2023-07-03T04:15:46.776Z,24.83
2023-07-03T04:16:16.760Z,25.27
2023-07-03T04:16:46.810Z,25.31
2023-07-03T04:17:16.774Z,25.38
2023-07-03T04:17:46.780Z,25.57
2023-07-03T04:18:12.851Z,17.36
2023-07-03T04:18:16.785Z,25.43
2023-07-03T04:18:46.797Z,24.96
2023-07-03T04:19:16.797Z,24.6
2023-07-03T04:19:46.815Z,24.09
2023-07-03T04:20:01.849Z,23.16
2023-07-03T04:20:16.822Z,22.99
2023-07-03T04:20:46.822Z,22.71
2023-07-03T04:21:01.869Z,22.01
2023-07-03T04:21:18.789Z,21.96
2023-07-03T04:21:46.838Z,22.19
2023-07-03T04:22:13.837Z,23.25
2023-07-03T04:22:16.835Z,23.39
2023-07-03T04:22:45.876Z,24.5
2023-07-03T04:22:46.858Z,24.59
2023-07-03T04:23:15.843Z,25.82
2023-07-03T04:23:16.848Z,25.85
2023-07-03T04:23:46.865Z,26.94
2023-07-03T04:23:49.846Z,27.39
2023-07-03T04:24:16.872Z,27.18
2023-07-03T04:24:46.900Z,28.04
2023-07-03T04:25:10.851Z,28.86
2023-07-03T04:25:17.039Z,17.23
2023-07-03T04:25:46.890Z,29.58
2023-07-03T04:26:07.846Z,30.89
2023-07-03T04:26:16.910Z,31.46
2023-07-03T04:26:30.857Z,32.52
2023-07-03T04:26:46.902Z,33.46
2023-07-03T04:27:16.911Z,35.12
2023-07-03T04:27:28.863Z,36.52
2023-07-03T04:27:46.938Z,37.49
2023-07-03T04:28:16.925Z,39.33
2023-07-03T04:28:46.933Z,39.14
2023-07-03T04:29:16.943Z,38.58
2023-07-03T04:29:46.949Z,38
2023-07-03T04:29:57.858Z,36.34
2023-07-03T04:30:06.859Z,38.43
2023-07-03T04:30:16.971Z,37.17
2023-07-03T04:30:46.973Z,38.08
2023-07-03T04:31:16.964Z,37.18
2023-07-03T04:31:47.036Z,37.19
2023-07-03T04:32:16.986Z,37.42
2023-07-03T04:32:46.985Z,38.07
2023-07-03T04:33:17.014Z,38.66
2023-07-03T04:33:25.861Z,28.19
2023-07-03T04:33:46.995Z,39.77
2023-07-03T04:34:17.008Z,40.61
2023-07-03T04:34:31.892Z,41.73
2023-07-03T04:34:47.012Z,42.33
2023-07-03T04:35:17.022Z,43.28
2023-07-03T04:35:42.870Z,25.06
2023-07-03T04:35:47.019Z,45.04
2023-07-03T04:36:17.037Z,45.4
2023-07-03T04:36:47.040Z,46.32
2023-07-03T04:37:17.050Z,46.39
2023-07-03T04:37:47.056Z,45.32
2023-07-03T04:38:06.888Z,34.87
2023-07-03T04:38:17.057Z,45.65
2023-07-03T04:38:47.061Z,44.66
2023-07-03T04:39:17.073Z,45.65
2023-07-03T04:39:42.879Z,40.48
2023-07-03T04:39:47.081Z,47.44
2023-07-03T04:40:17.089Z,47.6
2023-07-03T04:40:47.117Z,49.93
2023-07-03T04:41:17.106Z,48.97
2023-07-03T04:41:47.117Z,49.74
2023-07-03T04:42:01.894Z,50.13
2023-07-03T04:42:17.109Z,50.08
2023-07-03T04:42:47.131Z,50.12
2023-07-03T04:42:51.890Z,27.23
2023-07-03T04:43:02.888Z,50.48
2023-07-03T04:43:17.355Z,52.17
2023-07-03T04:43:47.150Z,48.82
2023-07-03T04:44:17.174Z,48.37
2023-07-03T04:44:19.946Z,47.67
2023-07-03T04:44:47.185Z,47.15
2023-07-03T04:45:17.173Z,46.26
2023-07-03T04:45:28.903Z,31.13
2023-07-03T04:45:33.884Z,47.73
2023-07-03T04:45:47.208Z,45.9
2023-07-03T04:46:17.186Z,46.21
2023-07-03T04:46:45.912Z,47.06
2023-07-03T04:46:47.225Z,47.31
2023-07-03T04:47:17.210Z,49.37
2023-07-03T04:47:21.915Z,46.38
2023-07-03T04:47:47.209Z,48.47
2023-07-03T04:47:55.929Z,49.5
2023-07-03T04:48:17.204Z,49.13
2023-07-03T04:48:47.203Z,49.77
2023-07-03T04:49:17.246Z,50.65
2023-07-03T04:49:47.234Z,50.14
2023-07-03T04:49:54.902Z,52.16
2023-07-03T04:50:17.223Z,52.16
2023-07-03T04:50:47.260Z,28.94
2023-07-03T04:51:17.253Z,36.71
2023-07-03T04:51:21.902Z,31.34
2023-07-03T04:51:47.248Z,52.31
2023-07-03T04:51:48.897Z,47.93
2023-07-03T04:52:10.900Z,52.75
2023-07-03T04:52:22.894Z,31.89
2023-07-03T04:52:47.266Z,33.91
2023-07-03T04:52:51.892Z,37.49
2023-07-03T04:53:13.904Z,56.61
2023-07-03T04:53:27.905Z,47.94
2023-07-03T04:53:47.268Z,10.15
2023-07-03T04:53:55.916Z,9.2
2023-07-03T04:54:17.279Z,57.09
2023-07-03T04:54:31.905Z,64.51
2023-07-03T04:54:47.284Z,43.74
2023-07-03T04:55:00.900Z,44.38
2023-07-03T04:55:17.291Z,40.01
2023-07-03T04:55:36.915Z,52.01
2023-07-03T04:55:47.300Z,62.67
2023-07-03T04:56:00.907Z,33.2
2023-07-03T04:56:17.307Z,41.16
2023-07-03T04:56:47.317Z,65.44
2023-07-03T04:57:17.319Z,65.49
2023-07-03T04:57:47.336Z,66.03
2023-07-03T04:58:17.343Z,65.85
2023-07-03T04:58:47.350Z,64.55
2023-07-03T04:59:17.343Z,63.2
2023-07-03T04:59:47.363Z,62.85
2023-07-03T05:00:17.362Z,62.13
2023-07-03T05:00:27.920Z,60.86
2023-07-03T05:00:47.382Z,60.57
2023-07-03T05:01:17.415Z,61.29
2023-07-03T05:01:33.929Z,64.15
2023-07-03T05:01:47.410Z,64.14
2023-07-03T05:02:17.387Z,67.63
2023-07-03T05:02:19.016Z,37.31
2023-07-03T05:02:47.415Z,69.11
2023-07-03T05:02:52.938Z,70.13
2023-07-03T05:03:17.467Z,73.51
2023-07-03T05:03:47.527Z,76.98
2023-07-03T05:04:17.476Z,79.99
2023-07-03T05:04:37.930Z,82.56
2023-07-03T05:05:13.935Z,78.22
2023-07-03T05:05:17.445Z,77.69
2023-07-03T05:05:47.447Z,73.55
2023-07-03T05:06:16.926Z,70.69
2023-07-03T05:06:17.471Z,70.69
2023-07-03T05:06:47.493Z,68.98
2023-07-03T05:07:17.475Z,69.21
2023-07-03T05:07:27.926Z,67.19
2023-07-03T05:07:47.480Z,67.11
2023-07-03T05:08:03.937Z,41.92
2023-07-03T05:08:17.473Z,66.68
2023-07-03T05:08:45.938Z,64.42
2023-07-03T05:08:47.480Z,64.4
2023-07-03T05:09:17.498Z,64.15
2023-07-03T05:09:47.507Z,65.13
2023-07-03T05:10:17.507Z,66.62
2023-07-03T05:10:47.518Z,67.38
2023-07-03T05:11:17.514Z,67.2
2023-07-03T05:11:47.541Z,67.27
2023-07-03T05:12:12.947Z,67.94
2023-07-03T05:12:17.542Z,67.81
2023-07-03T05:12:47.553Z,66.36
2023-07-03T05:13:17.549Z,68.09
2023-07-03T05:13:47.566Z,69.41
2023-07-03T05:14:06.941Z,71.55
2023-07-03T05:14:17.568Z,71.99
2023-07-03T05:14:47.580Z,72.08
2023-07-03T05:15:17.578Z,74.73
2023-07-03T05:15:18.955Z,75.52
2023-07-03T05:15:47.624Z,77.21
2023-07-03T05:16:17.649Z,74.43
2023-07-03T05:16:47.605Z,76.27
2023-07-03T05:17:17.613Z,75.84
2023-07-03T05:17:47.657Z,76.16
2023-07-03T05:17:50.002Z,80.12
2023-07-03T05:18:17.615Z,82.62
2023-07-03T05:18:21.948Z,75.49
2023-07-03T05:18:47.622Z,76.16
2023-07-03T05:19:15.984Z,40.18
2023-07-03T05:19:17.766Z,55.57
2023-07-03T05:19:47.651Z,75.49
2023-07-03T05:20:17.654Z,77.55
2023-07-03T05:20:47.652Z,78.86
2023-07-03T05:20:49.966Z,79.42
2023-07-03T05:21:17.662Z,80.77
2023-07-03T05:21:34.970Z,84.14
2023-07-03T05:21:47.669Z,86.4
2023-07-03T05:21:58.958Z,89.79
2023-07-03T05:22:17.674Z,97.61
2023-07-03T05:22:21.957Z,92.11
2023-07-03T05:22:47.682Z,94.91
2023-07-03T05:23:17.681Z,95.62
2023-07-03T05:23:47.708Z,95.23
2023-07-03T05:24:17.693Z,95.05
2023-07-03T05:24:47.713Z,94.02
2023-07-03T05:25:00.976Z,99.4
2023-07-03T05:25:17.714Z,91.61
2023-07-03T05:25:47.747Z,88.78
2023-07-03T05:25:55.964Z,100.74
2023-07-03T05:26:17.724Z,77.93
2023-07-03T05:27:17.747Z,83.66
2023-07-03T05:27:47.795Z,85.42
2023-07-03T05:28:17.749Z,86.04
2023-07-03T05:28:47.772Z,86.39
2023-07-03T05:29:17.769Z,86.51
2023-07-03T05:29:47.781Z,87.44
2023-07-03T05:30:17.785Z,86.98
2023-07-03T05:30:43.988Z,67.67
2023-07-03T05:30:50.207Z,67.93
2023-07-03T05:31:17.815Z,88.83
2023-07-03T05:31:47.926Z,89.3
2023-07-03T05:32:13.970Z,91.6
2023-07-03T05:32:17.848Z,91.91
2023-07-03T05:33:17.823Z,97.46
2023-07-03T05:33:47.836Z,95.64
2023-07-03T05:34:17.842Z,91.44
2023-07-03T05:34:40.007Z,87.47
2023-07-03T05:34:47.843Z,86.46
2023-07-03T05:35:17.860Z,81.62
2023-07-03T05:35:50.870Z,77.13
2023-07-03T05:36:16.000Z,74.24
2023-07-03T05:36:17.869Z,74.34
2023-07-03T05:36:47.877Z,73.67
2023-07-03T05:37:17.888Z,73.86
2023-07-03T05:37:47.911Z,74.47
2023-07-03T05:38:17.912Z,75.56
2023-07-03T05:38:47.906Z,77.69
2023-07-03T05:38:55.985Z,78.24
2023-07-03T05:39:17.980Z,79.27
2023-07-03T05:39:47.945Z,79.8
2023-07-03T05:40:17.927Z,79.61
2023-07-03T05:40:47.935Z,79.72
2023-07-03T05:41:17.944Z,79.51
2023-07-03T05:41:47.959Z,79.4
2023-07-03T05:42:17.961Z,79.71
2023-07-03T05:42:47.957Z,80.94
2023-07-03T05:43:17.968Z,82.12
2023-07-03T05:43:23.004Z,82.45
2023-07-03T05:43:47.983Z,83.79
2023-07-03T05:44:17.983Z,84.75
2023-07-03T05:44:48.032Z,85.69
2023-07-03T05:45:18.004Z,85.75
2023-07-03T05:45:48.025Z,82.44
2023-07-03T05:46:19.341Z,78.49
2023-07-03T05:46:44.035Z,74.66
2023-07-03T05:47:18.033Z,72.31
2023-07-03T05:47:26.094Z,70.97
2023-07-03T05:47:48.045Z,71.76
2023-07-03T05:48:18.063Z,72.09
2023-07-03T05:48:48.050Z,71.72
2023-07-03T05:49:16.003Z,61.9
2023-07-03T05:49:18.049Z,38.85
2023-07-03T05:49:22.024Z,39.09
2023-07-03T05:49:48.065Z,69.58
2023-07-03T05:50:18.056Z,68.85
2023-07-03T05:50:48.068Z,71